createdAt,value
2023-01-15T00:00:20.113Z,71.40
2023-01-15T00:02:21.852Z,71.40
2023-01-15T00:04:23.566Z,71.50
2023-01-15T00:06:26.220Z,71.50
2023-01-15T00:08:27.908Z,71.50
2023-01-15T00:10:29.593Z,72.40
2023-01-15T00:12:31.282Z,71.90
2023-01-15T00:14:33.029Z,71.80
2023-01-15T00:16:34.771Z,71.60
2023-01-15T00:18:37.597Z,71.60
2023-01-15T00:20:39.238Z,71.70
2023-01-15T00:22:40.894Z,72.20
2023-01-15T00:25:00.974Z,72.10
2023-01-15T00:27:32.200Z,72.00
2023-01-15T00:29:34.534Z,71.80
2023-01-15T00:31:36.295Z,71.90
2023-01-15T00:33:37.955Z,72.00
2023-01-15T00:35:39.604Z,72.20
2023-01-15T00:37:42.137Z,72.20
2023-01-15T00:39:45.454Z,72.40
2023-01-15T00:41:47.513Z,72.40
2023-01-15T00:43:50.146Z,72.40
2023-01-15T00:45:51.803Z,72.30
2023-01-15T00:47:53.559Z,72.20
2023-01-15T00:49:55.825Z,72.20
2023-01-15T00:51:57.499Z,72.10
2023-01-15T00:53:59.562Z,72.20
2023-01-15T00:56:01.255Z,72.10
2023-01-15T00:58:03.579Z,72.20
2023-01-15T01:00:05.602Z,72.30
2023-01-15T01:02:07.392Z,72.40
2023-01-15T01:04:09.351Z,72.40
2023-01-15T01:06:11.042Z,72.40
2023-01-15T01:08:13.981Z,72.70
2023-01-15T01:10:16.452Z,72.40
2023-01-15T01:12:18.163Z,72.50
2023-01-15T01:14:19.862Z,72.50
2023-01-15T01:16:21.551Z,72.60
2023-01-15T01:18:23.215Z,72.70
2023-01-15T01:20:26.674Z,72.60
2023-01-15T01:22:28.568Z,72.40
2023-01-15T01:24:30.278Z,72.90
2023-01-15T01:26:32.131Z,72.60
2023-01-15T01:28:33.766Z,72.70
2023-01-15T01:30:35.391Z,72.50
2023-01-15T01:32:37.000Z,72.30
2023-01-15T01:34:38.733Z,72.70
2023-01-15T01:36:41.562Z,72.60
2023-01-15T01:38:43.305Z,72.40
2023-01-15T01:40:45.992Z,72.50
2023-01-15T01:42:47.687Z,72.30
2023-01-15T01:44:49.335Z,72.40
2023-01-15T01:46:50.991Z,72.30
2023-01-15T01:48:55.685Z,72.50
2023-01-15T01:51:00.248Z,72.40
2023-01-15T01:53:21.577Z,72.50
2023-01-15T01:55:23.867Z,72.60
2023-01-15T01:57:25.648Z,72.60
2023-01-15T01:59:27.485Z,72.80
2023-01-15T02:01:29.294Z,73.00
2023-01-15T02:03:32.732Z,72.60
2023-01-15T02:05:39.661Z,72.70
2023-01-15T02:07:41.406Z,72.70
2023-01-15T02:09:43.115Z,72.70
2023-01-15T02:11:44.799Z,72.80
2023-01-15T02:13:51.221Z,73.00
2023-01-15T02:16:02.976Z,72.80
2023-01-15T02:18:08.991Z,72.90
2023-01-15T02:20:19.338Z,73.20
2023-01-15T02:22:23.669Z,73.00
2023-01-15T02:24:34.754Z,73.10
2023-01-15T02:26:37.577Z,73.20
2023-01-15T02:28:44.869Z,73.40
2023-01-15T02:30:49.244Z,73.50
2023-01-15T02:33:05.070Z,73.40
2023-01-15T02:35:11.358Z,73.20
2023-01-15T02:37:15.634Z,73.20
2023-01-15T02:39:17.842Z,73.50
2023-01-15T02:41:22.431Z,74.30
2023-01-15T02:43:24.708Z,73.60
2023-01-15T02:45:31.055Z,73.40
2023-01-15T02:47:38.549Z,73.40
2023-01-15T02:49:42.406Z,73.50
2023-01-15T02:51:58.724Z,73.10
2023-01-15T02:54:03.681Z,73.40
2023-01-15T02:56:14.765Z,73.50
2023-01-15T02:58:23.448Z,73.20
2023-01-15T03:00:25.943Z,73.10
2023-01-15T03:02:31.926Z,74.10
2023-01-15T03:04:38.682Z,73.90
2023-01-15T03:06:45.414Z,74.10
2023-01-15T03:08:47.248Z,74.00
2023-01-15T03:10:54.544Z,74.00
2023-01-15T03:13:04.245Z,73.70
2023-01-15T03:15:43.984Z,73.70
2023-01-15T03:17:50.187Z,74.10
2023-01-15T03:19:58.633Z,74.00
2023-01-15T03:22:07.038Z,74.10
2023-01-15T03:24:10.616Z,73.80
2023-01-15T03:26:12.692Z,73.80
2023-01-15T03:28:19.630Z,74.10
2023-01-15T03:30:23.243Z,73.80
2023-01-15T03:32:26.554Z,74.00
2023-01-15T03:34:33.589Z,74.00
2023-01-15T03:36:35.534Z,74.10
2023-01-15T03:38:38.506Z,73.70
2023-01-15T03:41:01.328Z,73.70
2023-01-15T03:43:24.829Z,73.20
2023-01-15T03:45:32.417Z,72.90
2023-01-15T03:47:47.371Z,72.80
2023-01-15T03:49:57.404Z,72.60
2023-01-15T03:52:22.146Z,72.60
2023-01-15T03:54:33.635Z,72.70
2023-01-15T03:56:44.337Z,72.50
2023-01-15T03:58:53.786Z,72.50
2023-01-15T04:01:03.528Z,72.40
2023-01-15T04:03:07.226Z,72.30
2023-01-15T04:05:08.892Z,72.20
2023-01-15T04:07:10.641Z,72.00
2023-01-15T04:09:13.373Z,72.10
2023-01-15T04:11:21.831Z,72.00
2023-01-15T04:13:26.244Z,72.10
2023-01-15T04:15:29.213Z,72.10
2023-01-15T04:17:30.867Z,72.10
2023-01-15T04:19:33.289Z,72.10
2023-01-15T04:21:38.232Z,72.00
2023-01-15T04:23:39.901Z,72.10
2023-01-15T04:25:41.810Z,72.30
2023-01-15T04:27:43.466Z,72.20
2023-01-15T04:29:45.123Z,72.10
2023-01-15T04:31:46.828Z,72.10
2023-01-15T04:33:48.430Z,72.10
2023-01-15T04:35:50.088Z,72.10
2023-01-15T04:37:55.880Z,72.00
2023-01-15T04:39:57.536Z,72.00
2023-01-15T04:42:17.995Z,72.00
2023-01-15T04:44:19.616Z,71.90
2023-01-15T04:46:22.454Z,71.80
2023-01-15T04:48:24.225Z,71.80
2023-01-15T04:50:25.879Z,71.90
2023-01-15T04:52:27.518Z,72.10
2023-01-15T04:54:29.536Z,72.10
2023-01-15T04:56:31.462Z,72.10
2023-01-15T04:58:34.021Z,72.10
2023-01-15T05:00:35.689Z,72.00
2023-01-15T05:02:37.408Z,72.00
2023-01-15T05:04:39.205Z,72.00
2023-01-15T05:06:40.880Z,72.00
2023-01-15T05:08:42.655Z,71.90
2023-01-15T05:10:44.294Z,71.70
2023-01-15T05:12:46.035Z,71.70
2023-01-15T05:14:47.658Z,71.60
2023-01-15T05:16:49.328Z,71.60
2023-01-15T05:18:52.323Z,71.60
2023-01-15T05:20:53.935Z,71.40
2023-01-15T05:22:55.551Z,71.00
2023-01-15T05:24:57.170Z,70.90
2023-01-15T05:26:58.886Z,70.90
2023-01-15T05:29:01.036Z,70.90
2023-01-15T05:31:07.625Z,71.10
2023-01-15T05:33:09.255Z,71.30
2023-01-15T05:35:10.884Z,71.30
2023-01-15T05:37:12.524Z,71.40
2023-01-15T05:39:14.139Z,71.40
2023-01-15T05:41:36.104Z,71.40
2023-01-15T05:43:37.844Z,71.40
2023-01-15T05:45:39.423Z,71.50
2023-01-15T05:47:41.080Z,71.60
2023-01-15T05:49:42.828Z,71.70
2023-01-15T05:51:44.820Z,71.70
2023-01-15T05:53:46.436Z,71.90
2023-01-15T05:55:48.088Z,71.90
2023-01-15T05:57:49.717Z,71.90
2023-01-15T05:59:53.245Z,71.90
2023-01-15T06:01:55.385Z,71.90
2023-01-15T06:04:00.917Z,72.00
2023-01-15T06:06:03.080Z,71.70
2023-01-15T06:08:04.875Z,71.60
2023-01-15T06:10:06.831Z,71.60
2023-01-15T06:12:08.485Z,71.60
2023-01-15T06:14:11.274Z,71.80
2023-01-15T06:16:13.035Z,71.60
2023-01-15T06:18:14.731Z,71.40
2023-01-15T06:20:16.449Z,71.50
2023-01-15T06:22:18.278Z,71.50
2023-01-15T06:24:20.651Z,71.40
2023-01-15T06:26:22.356Z,71.30
2023-01-15T06:28:24.147Z,71.30
2023-01-15T06:30:25.783Z,71.30
2023-01-15T06:32:27.483Z,71.30
2023-01-15T06:34:29.155Z,71.20
2023-01-15T06:36:30.773Z,71.10
2023-01-15T06:38:32.644Z,71.00
2023-01-15T06:40:34.265Z,70.80
2023-01-15T06:42:54.493Z,70.90
2023-01-15T06:45:14.704Z,71.60
2023-01-15T06:47:21.495Z,71.40
2023-01-15T06:49:23.431Z,71.50
2023-01-15T06:51:25.256Z,71.50
2023-01-15T06:53:26.934Z,71.40
2023-01-15T06:55:28.545Z,71.40
2023-01-15T06:57:30.262Z,71.20
2023-01-15T06:59:32.238Z,71.20
2023-01-15T07:01:33.858Z,71.30
2023-01-15T07:03:35.595Z,71.40
2023-01-15T07:05:40.490Z,71.20
2023-01-15T07:07:42.109Z,70.90
2023-01-15T07:09:43.838Z,70.80
2023-01-15T07:11:51.437Z,70.70
2023-01-15T07:14:05.682Z,70.70
2023-01-15T07:16:26.788Z,70.70
2023-01-15T07:18:29.649Z,70.90
2023-01-15T07:20:31.463Z,71.10
2023-01-15T07:22:33.239Z,71.10
2023-01-15T07:24:35.051Z,71.30
2023-01-15T07:26:36.894Z,71.30
2023-01-15T07:28:38.572Z,71.30
2023-01-15T07:30:40.193Z,71.40
2023-01-15T07:32:42.013Z,71.50
2023-01-15T07:34:43.676Z,71.50
2023-01-15T07:36:45.341Z,71.40
2023-01-15T07:38:47.036Z,71.30
2023-01-15T07:41:08.835Z,71.50
2023-01-15T07:43:29.488Z,71.40
2023-01-15T07:45:49.681Z,71.40
2023-01-15T07:48:10.063Z,71.10
2023-01-15T07:50:19.266Z,70.80
2023-01-15T07:52:21.991Z,70.60
2023-01-15T07:54:23.632Z,70.50
2023-01-15T07:56:25.370Z,70.40
2023-01-15T07:58:27.032Z,70.40
2023-01-15T08:00:28.736Z,70.40
2023-01-15T08:02:30.360Z,70.10
2023-01-15T08:04:32.033Z,69.50
2023-01-15T08:06:33.669Z,69.70
2023-01-15T08:08:35.290Z,69.70
2023-01-15T08:10:56.873Z,69.70
2023-01-15T08:13:33.772Z,69.70
2023-01-15T08:15:39.177Z,69.50
2023-01-15T08:17:42.360Z,69.90
2023-01-15T08:19:44.017Z,70.10
2023-01-15T08:21:45.817Z,70.10
2023-01-15T08:23:47.639Z,70.00
2023-01-15T08:25:49.260Z,70.10
2023-01-15T08:27:51.299Z,70.10
2023-01-15T08:29:53.116Z,70.10
2023-01-15T08:31:54.789Z,70.20
2023-01-15T08:33:56.495Z,70.30
2023-01-15T08:35:58.140Z,70.30
2023-01-15T08:38:03.462Z,70.20
2023-01-15T08:40:05.405Z,70.20
2023-01-15T08:42:07.111Z,70.50
2023-01-15T08:44:09.367Z,70.70
2023-01-15T08:46:11.533Z,70.50
2023-01-15T08:48:13.307Z,70.40
2023-01-15T08:50:15.028Z,70.50
2023-01-15T08:52:16.909Z,70.60
2023-01-15T08:54:19.739Z,70.70
2023-01-15T08:56:21.379Z,70.60
2023-01-15T08:58:23.050Z,70.60
2023-01-15T09:00:25.043Z,70.60
2023-01-15T09:02:27.820Z,70.60
2023-01-15T09:04:29.481Z,70.60
2023-01-15T09:06:31.133Z,70.50
2023-01-15T09:08:32.845Z,70.50
2023-01-15T09:10:34.621Z,70.50
2023-01-15T09:12:36.527Z,70.40
2023-01-15T09:14:58.176Z,70.40
2023-01-15T09:16:59.732Z,70.50
2023-01-15T09:19:01.355Z,70.50
2023-01-15T09:21:03.727Z,70.50
2023-01-15T09:23:05.356Z,70.70
2023-01-15T09:25:07.237Z,70.80
2023-01-15T09:27:11.315Z,70.90
2023-01-15T09:29:13.113Z,70.90
2023-01-15T09:31:14.784Z,70.90
2023-01-15T09:33:16.556Z,71.10
2023-01-15T09:35:18.310Z,71.10
2023-01-15T09:37:20.023Z,70.90
2023-01-15T09:39:21.698Z,70.80
2023-01-15T09:41:42.726Z,70.40
2023-01-15T09:43:50.633Z,70.50
2023-01-15T09:45:56.814Z,70.70
2023-01-15T09:48:04.759Z,70.70
2023-01-15T09:50:35.946Z,71.00
2023-01-15T09:52:55.429Z,71.00
2023-01-15T09:54:57.040Z,70.80
2023-01-15T09:56:58.958Z,70.70
2023-01-15T09:59:04.134Z,70.70
2023-01-15T10:01:06.488Z,70.90
2023-01-15T10:03:23.692Z,70.90
2023-01-15T10:05:44.168Z,70.80
2023-01-15T10:07:52.013Z,70.70
2023-01-15T10:09:59.308Z,70.80
2023-01-15T10:12:31.993Z,70.80
2023-01-15T10:14:39.763Z,70.80
2023-01-15T10:16:41.479Z,70.50
2023-01-15T10:18:43.496Z,70.50
2023-01-15T10:20:45.180Z,70.50
2023-01-15T10:23:05.903Z,70.50
2023-01-15T10:25:11.852Z,70.50
2023-01-15T10:27:19.146Z,70.40
2023-01-15T10:29:33.806Z,70.40
2023-01-15T10:31:47.346Z,71.10
2023-01-15T10:33:55.229Z,70.40
2023-01-15T10:35:56.985Z,70.30
2023-01-15T10:38:02.877Z,70.20
2023-01-15T10:40:17.120Z,70.20
2023-01-15T10:42:30.870Z,70.00
2023-01-15T10:44:46.403Z,69.90
2023-01-15T10:46:56.524Z,70.10
2023-01-15T10:49:02.509Z,70.20
2023-01-15T10:51:12.688Z,70.20
2023-01-15T10:53:32.674Z,70.10
2023-01-15T10:56:09.816Z,70.10
2023-01-15T10:58:16.289Z,70.10
2023-01-15T11:00:18.185Z,70.10
2023-01-15T11:02:46.062Z,70.00
2023-01-15T11:04:47.917Z,70.20
2023-01-15T11:06:49.764Z,71.00
2023-01-15T11:09:12.119Z,69.70
2023-01-15T11:11:19.415Z,69.60
2023-01-15T11:13:40.827Z,69.80
2023-01-15T11:16:05.243Z,69.90
2023-01-15T11:18:31.402Z,69.50
2023-01-15T11:20:34.769Z,69.60
2023-01-15T11:22:38.583Z,69.90
2023-01-15T11:25:00.124Z,70.00
2023-01-15T11:27:01.852Z,70.10
2023-01-15T11:29:13.475Z,70.20
2023-01-15T11:31:17.639Z,70.20
2023-01-15T11:33:27.804Z,70.10
2023-01-15T11:35:29.946Z,70.20
2023-01-15T11:37:31.646Z,70.00
2023-01-15T11:39:33.423Z,69.80
2023-01-15T11:41:54.133Z,70.10
2023-01-15T11:44:15.572Z,70.40
2023-01-15T11:46:46.574Z,70.50
2023-01-15T11:49:07.140Z,70.50
2023-01-15T11:51:15.822Z,70.60
2023-01-15T11:53:20.861Z,70.60
2023-01-15T11:55:24.774Z,70.70
2023-01-15T11:57:28.226Z,70.30
2023-01-15T11:59:30.014Z,69.90
2023-01-15T12:01:31.924Z,69.70
2023-01-15T12:03:35.101Z,69.50
2023-01-15T12:05:37.026Z,68.90
2023-01-15T12:07:39.629Z,68.80
2023-01-15T12:09:44.559Z,68.90
2023-01-15T12:12:05.045Z,69.20
2023-01-15T12:14:15.826Z,69.40
2023-01-15T12:16:32.152Z,69.20
2023-01-15T12:19:06.209Z,69.40
2023-01-15T12:21:28.368Z,69.60
2023-01-15T12:23:49.127Z,69.80
2023-01-15T12:26:06.172Z,69.90
2023-01-15T12:28:10.628Z,70.00
2023-01-15T12:30:21.547Z,70.00
2023-01-15T12:32:25.819Z,69.90
2023-01-15T12:34:33.200Z,69.80
2023-01-15T12:37:01.016Z,69.80
2023-01-15T12:39:07.888Z,69.70
2023-01-15T12:41:14.713Z,69.90
2023-01-15T12:43:41.802Z,69.70
2023-01-15T12:45:51.212Z,70.00
2023-01-15T12:47:52.920Z,70.10
2023-01-15T12:50:14.883Z,70.00
2023-01-15T12:52:24.102Z,70.00
2023-01-15T12:54:29.996Z,70.00
2023-01-15T12:56:57.856Z,69.90
2023-01-15T12:59:18.383Z,69.80
2023-01-15T13:01:34.158Z,70.00
2023-01-15T13:03:58.859Z,69.80
2023-01-15T13:06:02.445Z,69.80
2023-01-15T13:08:30.405Z,69.70
2023-01-15T13:10:35.386Z,69.50
2023-01-15T13:12:37.186Z,69.70
2023-01-15T13:14:38.995Z,70.00
2023-01-15T13:16:40.985Z,70.10
2023-01-15T13:18:42.805Z,70.20
2023-01-15T13:20:51.171Z,70.30
2023-01-15T13:23:43.540Z,70.40
2023-01-15T13:25:51.468Z,70.40
2023-01-15T13:28:00.777Z,70.60
2023-01-15T13:30:02.892Z,70.70
2023-01-15T13:32:17.088Z,70.70
2023-01-15T13:34:30.939Z,70.70
2023-01-15T13:36:40.515Z,70.80
2023-01-15T13:38:45.029Z,71.00
2023-01-15T13:40:51.951Z,71.10
2023-01-15T13:42:54.027Z,71.00
2023-01-15T13:44:55.744Z,70.70
2023-01-15T13:47:08.529Z,70.60
2023-01-15T13:49:32.852Z,70.20
2023-01-15T13:51:39.137Z,69.80
2023-01-15T13:53:46.125Z,69.60
2023-01-15T13:55:53.216Z,69.40
2023-01-15T13:57:54.976Z,69.10
2023-01-15T13:59:56.743Z,68.70
2023-01-15T14:01:58.452Z,68.90
2023-01-15T14:04:00.205Z,69.20
2023-01-15T14:06:04.084Z,69.10
2023-01-15T14:08:15.221Z,69.00
2023-01-15T14:10:16.856Z,68.80
2023-01-15T14:12:35.291Z,68.60
2023-01-15T14:14:44.575Z,68.70
2023-01-15T14:16:55.944Z,68.50
2023-01-15T14:19:00.348Z,68.70
2023-01-15T14:21:07.655Z,68.50
2023-01-15T14:23:21.775Z,68.60
2023-01-15T14:25:43.350Z,68.60
2023-01-15T14:27:49.580Z,68.60
2023-01-15T14:30:01.401Z,68.60
2023-01-15T14:32:09.394Z,67.70
2023-01-15T14:34:19.120Z,67.70
2023-01-15T14:36:24.232Z,67.90
2023-01-15T14:38:27.548Z,68.20
2023-01-15T14:40:34.482Z,67.90
2023-01-15T14:42:56.751Z,67.90
2023-01-15T14:45:00.620Z,68.30
2023-01-15T14:47:04.608Z,68.20
2023-01-15T14:49:26.264Z,68.10
2023-01-15T14:51:29.421Z,68.20
2023-01-15T14:53:33.409Z,67.70
2023-01-15T14:58:49.143Z,67.60
2023-01-15T15:00:54.388Z,68.20
2023-01-15T15:02:59.188Z,68.00
2023-01-15T15:05:01.793Z,68.00
2023-01-15T15:07:07.271Z,68.00
2023-01-15T15:09:13.528Z,67.60
2023-01-15T15:11:38.357Z,67.60
2023-01-15T15:13:44.346Z,67.90
2023-01-15T15:15:48.831Z,67.90
2023-01-15T15:18:01.131Z,68.10
2023-01-15T15:20:13.312Z,68.20
2023-01-15T15:22:16.463Z,68.10
2023-01-15T15:24:32.617Z,68.10
2023-01-15T15:26:35.675Z,68.00
2023-01-15T15:28:37.546Z,68.10
2023-01-15T15:30:44.303Z,68.10
2023-01-15T15:32:46.327Z,68.20
2023-01-15T15:34:51.034Z,68.00
2023-01-15T15:36:52.852Z,68.00
2023-01-15T15:38:56.098Z,67.90
2023-01-15T15:40:59.211Z,68.00
2023-01-15T15:43:40.950Z,68.00
2023-01-15T15:46:09.064Z,68.00
2023-01-15T15:48:36.016Z,68.00
2023-01-15T15:50:37.702Z,67.90
2023-01-15T15:52:43.724Z,68.10
2023-01-15T15:54:45.407Z,68.10
2023-01-15T15:56:47.086Z,68.10
2023-01-15T15:58:48.866Z,68.00
2023-01-15T16:00:50.735Z,68.00
2023-01-15T16:02:52.550Z,68.00
2023-01-15T16:04:55.682Z,67.90
2023-01-15T16:06:57.499Z,68.00
2023-01-15T16:09:04.778Z,67.70
2023-01-15T16:11:08.790Z,67.70
2023-01-15T16:13:20.081Z,67.90
2023-01-15T16:15:24.154Z,67.60
2023-01-15T16:17:27.074Z,67.70
2023-01-15T16:19:29.869Z,67.90
2023-01-15T16:21:33.561Z,67.80
2023-01-15T16:23:35.434Z,67.80
2023-01-15T16:25:41.854Z,67.90
2023-01-15T16:27:43.683Z,67.90
2023-01-15T16:29:48.794Z,68.80
2023-01-15T16:31:50.840Z,68.00
2023-01-15T16:33:57.047Z,67.80
2023-01-15T16:35:59.847Z,68.00
2023-01-15T16:38:02.276Z,67.80
2023-01-15T16:40:05.020Z,67.80
2023-01-15T16:42:22.681Z,67.80
2023-01-15T16:44:26.383Z,67.80
2023-01-15T16:46:30.721Z,68.00
2023-01-15T16:48:38.188Z,67.70
2023-01-15T16:50:42.437Z,67.70
2023-01-15T16:52:48.693Z,67.60
2023-01-15T16:54:50.411Z,67.50
2023-01-15T16:56:54.030Z,67.60
2023-01-15T16:58:55.898Z,67.70
2023-01-15T17:00:58.376Z,67.50
2023-01-15T17:03:00.213Z,67.50
2023-01-15T17:05:13.719Z,67.40
2023-01-15T17:07:34.325Z,67.70
2023-01-15T17:11:26.596Z,67.50
2023-01-15T17:13:21.229Z,67.50
2023-01-15T17:15:25.939Z,67.10
2023-01-15T17:17:28.835Z,67.30
2023-01-15T17:19:30.734Z,67.30
2023-01-15T17:21:33.418Z,67.50
2023-01-15T17:23:41.853Z,67.50
2023-01-15T17:25:43.608Z,67.50
2023-01-15T17:27:45.939Z,67.10
2023-01-15T17:29:48.198Z,67.10
2023-01-15T17:31:50.210Z,67.10
2023-01-15T17:33:54.966Z,67.20
2023-01-15T17:36:00.438Z,67.40
2023-01-15T17:38:02.323Z,67.10
2023-01-15T17:40:04.268Z,67.30
2023-01-15T17:42:12.331Z,67.20
2023-01-15T17:44:14.175Z,67.40
2023-01-15T17:46:16.900Z,67.60
2023-01-15T17:48:18.876Z,67.20
2023-01-15T17:50:29.979Z,67.40
2023-01-15T17:52:31.758Z,67.00
2023-01-15T17:54:53.973Z,67.20
2023-01-15T17:57:14.342Z,67.30
2023-01-15T17:59:34.534Z,67.10
2023-01-15T18:01:57.621Z,66.40
2023-01-15T18:04:18.155Z,66.90
2023-01-15T18:06:21.198Z,66.80
2023-01-15T18:08:22.921Z,67.20
2023-01-15T18:10:25.110Z,66.90
2023-01-15T18:12:26.868Z,66.90
2023-01-15T18:14:28.625Z,67.00
2023-01-15T18:16:30.584Z,66.70
2023-01-15T18:18:32.374Z,66.80
2023-01-15T18:20:34.230Z,66.80
2023-01-15T18:22:38.002Z,67.10
2023-01-15T18:24:40.092Z,67.30
2023-01-15T18:26:42.056Z,66.90
2023-01-15T18:28:46.243Z,66.80
2023-01-15T18:30:48.192Z,66.30
2023-01-15T18:32:50.228Z,66.30
2023-01-15T18:34:52.121Z,66.40
2023-01-15T18:36:53.800Z,66.60
2023-01-15T18:38:55.798Z,66.30
2023-01-15T18:40:57.644Z,66.40
2023-01-15T18:43:17.863Z,66.20
2023-01-15T18:45:38.443Z,66.30
2023-01-15T18:47:41.085Z,66.10
2023-01-15T18:49:43.739Z,66.00
2023-01-15T18:52:05.471Z,66.20
2023-01-15T18:54:08.849Z,66.10
2023-01-15T18:56:10.640Z,66.30
2023-01-15T18:58:12.533Z,66.40
2023-01-15T19:00:14.459Z,67.00
2023-01-15T19:02:17.563Z,66.20
2023-01-15T19:04:20.449Z,66.20
2023-01-15T19:06:22.313Z,66.00
2023-01-15T19:08:24.283Z,65.80
2023-01-15T19:10:26.303Z,65.40
2023-01-15T19:12:28.023Z,65.40
2023-01-15T19:14:48.263Z,65.40
2023-01-15T19:17:08.797Z,65.40
2023-01-15T19:19:10.791Z,65.60
2023-01-15T19:21:13.128Z,66.30
2023-01-15T19:23:14.901Z,65.40
2023-01-15T19:25:16.797Z,65.80
2023-01-15T19:27:18.709Z,65.80
2023-01-15T19:29:20.491Z,66.50
2023-01-15T19:31:39.043Z,65.80
2023-01-15T19:33:40.946Z,65.90
2023-01-15T19:35:42.733Z,65.60
2023-01-15T19:37:44.843Z,65.60
2023-01-15T19:39:46.632Z,65.40
2023-01-15T19:42:06.963Z,65.80
2023-01-15T19:44:28.015Z,65.80
2023-01-15T19:46:48.591Z,65.40
2023-01-15T19:49:09.827Z,65.40
2023-01-15T19:51:11.789Z,65.50
2023-01-15T19:53:13.971Z,65.10
2023-01-15T19:55:16.197Z,65.70
2023-01-15T19:57:21.589Z,65.60
2023-01-15T19:59:23.442Z,65.60
2023-01-15T20:01:26.453Z,65.50
2023-01-15T20:03:28.709Z,65.30
2023-01-15T20:05:37.732Z,65.50
2023-01-15T20:07:42.741Z,65.30
2023-01-15T20:09:44.760Z,65.60
2023-01-15T20:12:05.391Z,65.60
2023-01-15T20:14:07.161Z,65.60
2023-01-15T20:16:10.517Z,65.60
2023-01-15T20:18:12.795Z,65.50
2023-01-15T20:20:14.940Z,65.40
2023-01-15T20:22:16.756Z,65.50
2023-01-15T20:24:18.653Z,65.30
2023-01-15T20:26:24.317Z,65.70
2023-01-15T20:28:26.157Z,65.30
2023-01-15T20:30:28.212Z,64.90
2023-01-15T20:32:30.008Z,64.90
2023-01-15T20:34:34.594Z,65.10
2023-01-15T20:36:36.632Z,64.70
2023-01-15T20:38:38.566Z,64.50
2023-01-15T20:40:41.715Z,64.60
2023-01-15T20:43:02.100Z,64.30
2023-01-15T20:45:08.225Z,64.40
2023-01-15T20:47:29.977Z,64.60
2023-01-15T20:49:32.786Z,64.70
2023-01-15T20:51:34.639Z,64.60
2023-01-15T20:53:36.509Z,64.70
2023-01-15T20:55:55.771Z,64.20
2023-01-15T20:57:58.544Z,64.90
2023-01-15T21:00:00.420Z,64.90
2023-01-15T21:02:02.189Z,64.90
2023-01-15T21:04:04.101Z,64.90
2023-01-15T21:06:06.836Z,65.30
2023-01-15T21:08:08.650Z,65.20
2023-01-15T21:10:13.309Z,64.90
2023-01-15T21:12:15.314Z,65.20
2023-01-15T21:14:17.079Z,64.50
2023-01-15T21:16:18.944Z,64.00
2023-01-15T21:18:20.751Z,63.70
2023-01-15T21:20:22.621Z,64.40
2023-01-15T21:22:24.399Z,64.20
2023-01-15T21:24:26.243Z,64.30
2023-01-15T21:26:28.950Z,64.90
2023-01-15T21:28:30.765Z,64.50
2023-01-15T21:30:32.436Z,64.70
2023-01-15T21:32:34.289Z,64.40
2023-01-15T21:34:36.170Z,64.40
2023-01-15T21:36:38.033Z,64.70
2023-01-15T21:38:40.159Z,64.50
2023-01-15T21:40:41.855Z,65.00
2023-01-15T21:43:01.984Z,65.10
2023-01-15T21:45:05.242Z,64.90
2023-01-15T21:47:08.850Z,65.10
2023-01-15T21:49:10.600Z,64.50
2023-01-15T21:51:12.289Z,64.40
2023-01-15T21:53:14.018Z,64.70
2023-01-15T21:55:15.842Z,64.90
2023-01-15T21:57:19.056Z,65.90
2023-01-15T21:59:22.108Z,64.80
2023-01-15T22:01:24.054Z,65.00
2023-01-15T22:03:25.755Z,64.70
2023-01-15T22:05:27.627Z,64.50
2023-01-15T22:07:29.336Z,64.50
2023-01-15T22:09:31.028Z,64.90
2023-01-15T22:11:44.657Z,64.70
2023-01-15T22:13:49.044Z,64.70
2023-01-15T22:15:54.355Z,64.90
2023-01-15T22:17:57.346Z,64.80
2023-01-15T22:19:59.042Z,64.60
2023-01-15T22:22:02.188Z,64.60
2023-01-15T22:24:04.492Z,65.10
2023-01-15T22:26:06.213Z,64.80
2023-01-15T22:28:08.145Z,65.00
2023-01-15T22:30:11.507Z,65.00
2023-01-15T22:32:14.154Z,64.60
2023-01-15T22:34:15.865Z,64.70
2023-01-15T22:36:17.885Z,64.70
2023-01-15T22:38:19.563Z,65.10
2023-01-15T22:40:21.219Z,64.80
2023-01-15T22:42:27.540Z,65.70
2023-01-15T22:44:30.013Z,64.60
2023-01-15T22:46:31.694Z,64.70
2023-01-15T22:48:33.425Z,65.10
2023-01-15T22:50:35.119Z,65.10
2023-01-15T22:52:39.024Z,64.80
2023-01-15T22:54:44.614Z,64.90
2023-01-15T22:56:46.593Z,64.90
2023-01-15T22:58:48.291Z,65.20
2023-01-15T23:00:53.745Z,64.50
2023-01-15T23:02:55.513Z,64.80
2023-01-15T23:04:57.213Z,64.60
2023-01-15T23:06:58.877Z,65.00
2023-01-15T23:09:01.678Z,64.40
2023-01-15T23:11:08.434Z,64.80
2023-01-15T23:13:10.644Z,64.40
2023-01-15T23:15:13.868Z,64.20
2023-01-15T23:17:15.649Z,64.50
2023-01-15T23:19:17.940Z,64.40
2023-01-15T23:21:20.895Z,64.40
2023-01-15T23:23:22.621Z,64.60
2023-01-15T23:25:24.256Z,64.40
2023-01-15T23:27:25.910Z,64.00
2023-01-15T23:29:27.586Z,64.00
2023-01-15T23:31:29.545Z,64.10
2023-01-15T23:33:31.516Z,64.40
2023-01-15T23:35:33.255Z,64.00
2023-01-15T23:37:34.911Z,64.00
2023-01-15T23:39:36.519Z,64.40
2023-01-15T23:41:56.745Z,64.40
2023-01-15T23:44:17.026Z,64.20
2023-01-15T23:46:35.001Z,64.20
2023-01-15T23:48:36.703Z,64.10
2023-01-15T23:50:38.623Z,63.80
2023-01-15T23:52:40.320Z,63.40
2023-01-15T23:54:42.080Z,63.60
2023-01-15T23:56:46.051Z,63.50
2023-01-15T23:58:47.811Z,64.10
